^^
Your Local Weather - Clay, NY Station Historical Data
Daily Summary for February 27, 2018 Units:  Both    English   Metric
« Previous Day
Next Day »
Daily Weekly Monthly Yearly Custom
  High: Low: Average:
Temperature: 55.2 °F /  12.9 °C 24.9 °F /  -3.9 °C 40.3 °F /  4.6 °C
Dew Point: 33.0 °F /  0.6 °C 20.1 °F /  -6.6 °C 26 °F /  -3.3 °C
Humidity: 88% 34% 59%
Wind Speed: 6.0mph /  9.7km/h - 1.2mph /  1.9km/h
Wind Gust: 11.0mph /  17.7km/h - -
Wind- - WSW
Pressure: 30.31 in /  1026.3 hPa 30.04 in /  1017.2 hPa -
Precipitation: 0.00 in /  0 mm    
Historical Graphs
 
 
Tabular Data for February 27, 2018
Time Temperature Dew Point Pressure Wind Wind Speed Wind Gust Humidity Rainfall Rate (Hourly) solar
00:04 33.5 °F /  0.8 °C 22.2 °F /  -5.4 °C 30.27in /  1024.9hPa Calm   2.0mph /  3.2km/h 63% 0.00in /  0mm 0 W/m2
00:10 33.4 °F /  0.8 °C 22.5 °F /  -5.3 °C 30.27in /  1024.9hPa Calm     64% 0.00in /  0mm 0 W/m2
00:16 33.2 °F /  0.7 °C 22.3 °F /  -5.4 °C 30.27in /  1024.9hPa Calm   1.0mph /  1.6km/h 64% 0.00in /  0mm 0 W/m2
00:22 33.0 °F /  0.6 °C 22.1 °F /  -5.5 °C 30.27in /  1024.9hPa Calm   1.0mph /  1.6km/h 64% 0.00in /  0mm 0 W/m2
00:28 32.9 °F /  0.5 °C 22.4 °F /  -5.3 °C 30.27in /  1024.9hPa West 1.0mph /  1.6km/h 1.0mph /  1.6km/h 65% 0.00in /  0mm 0 W/m2
00:34 33.0 °F /  0.6 °C 22.1 °F /  -5.5 °C 30.28in /  1025.3hPa West 1.0mph /  1.6km/h 1.0mph /  1.6km/h 64% 0.00in /  0mm 0 W/m2
00:40 32.9 °F /  0.5 °C 22.0 °F /  -5.6 °C 30.28in /  1025.3hPa West 1.0mph /  1.6km/h 1.0mph /  1.6km/h 64% 0.00in /  0mm 0 W/m2
00:46 32.8 °F /  0.4 °C 22.0 °F /  -5.6 °C 30.28in /  1025.3hPa Calm   1.0mph /  1.6km/h 64% 0.00in /  0mm 0 W/m2
00:52 32.7 °F /  0.4 °C 22.2 °F /  -5.4 °C 30.28in /  1025.3hPa Calm     65% 0.00in /  0mm 0 W/m2
00:58 32.5 °F /  0.3 °C 22.0 °F /  -5.6 °C 30.28in /  1025.3hPa Calm   2.0mph /  3.2km/h 65% 0.00in /  0mm 0 W/m2
01:04 32.5 °F /  0.3 °C 21.7 °F /  -5.7 °C 30.28in /  1025.3hPa Calm     64% 0.00in /  0mm 0 W/m2
01:10 32.3 °F /  0.2 °C 21.8 °F /  -5.7 °C 30.28in /  1025.3hPa Calm     65% 0.00in /  0mm 0 W/m2
01:16 32.1 °F /  0.1 °C 21.7 °F /  -5.7 °C 30.28in /  1025.3hPa Calm     65% 0.00in /  0mm 0 W/m2
01:22 31.8 °F /  -0.1 °C 21.7 °F /  -5.7 °C 30.28in /  1025.3hPa Calm     66% 0.00in /  0mm 0 W/m2
01:28 31.6 °F /  -0.2 °C 21.5 °F /  -5.8 °C 30.28in /  1025.3hPa Calm   1.0mph /  1.6km/h 66% 0.00in /  0mm 0 W/m2
01:34 31.8 °F /  -0.1 °C 21.4 °F /  -5.9 °C 30.28in /  1025.3hPa West 1.0mph /  1.6km/h 1.0mph /  1.6km/h 65% 0.00in /  0mm 0 W/m2
01:40 32.1 °F /  0.1 °C 21.7 °F /  -5.7 °C 30.28in /  1025.3hPa West 1.0mph /  1.6km/h 2.0mph /  3.2km/h 65% 0.00in /  0mm 0 W/m2
01:46 32.1 °F /  0.1 °C 21.3 °F /  -5.9 °C 30.28in /  1025.3hPa West 1.0mph /  1.6km/h 2.0mph /  3.2km/h 64% 0.00in /  0mm 0 W/m2
01:52 32.0 °F /  0 °C 21.2 °F /  -6 °C 30.28in /  1025.3hPa Calm     64% 0.00in /  0mm 0 W/m2
01:58 32.0 °F /  0 °C 21.2 °F /  -6 °C 30.28in /  1025.3hPa West 1.0mph /  1.6km/h 1.0mph /  1.6km/h 64% 0.00in /  0mm 0 W/m2
02:04 31.9 °F /  -0.1 °C 21.1 °F /  -6.1 °C 30.28in /  1025.3hPa Calm   1.0mph /  1.6km/h 64% 0.00in /  0mm 0 W/m2
02:10 31.8 °F /  -0.1 °C 21.0 °F /  -6.1 °C 30.28in /  1025.3hPa Calm     64% 0.00in /  0mm 0 W/m2
02:16 31.7 °F /  -0.2 °C 20.9 °F /  -6.2 °C 30.28in /  1025.3hPa West 1.0mph /  1.6km/h 1.0mph /  1.6km/h 64% 0.00in /  0mm 0 W/m2
02:22 31.6 °F /  -0.2 °C 21.2 °F /  -6 °C 30.28in /  1025.3hPa Calm   1.0mph /  1.6km/h 65% 0.00in /  0mm 0 W/m2
02:28 31.5 °F /  -0.3 °C 21.1 °F /  -6.1 °C 30.28in /  1025.3hPa Calm   1.0mph /  1.6km/h 65% 0.00in /  0mm 0 W/m2
02:34 31.5 °F /  -0.3 °C 21.1 °F /  -6.1 °C 30.28in /  1025.3hPa Calm   1.0mph /  1.6km/h 65% 0.00in /  0mm 0 W/m2
02:40 31.6 °F /  -0.2 °C 21.2 °F /  -6 °C 30.28in /  1025.3hPa WSW 1.0mph /  1.6km/h 2.0mph /  3.2km/h 65% 0.00in /  0mm 0 W/m2
02:46 31.7 °F /  -0.2 °C 21.3 °F /  -5.9 °C 30.28in /  1025.3hPa WSW 1.0mph /  1.6km/h 2.0mph /  3.2km/h 65% 0.00in /  0mm 0 W/m2
02:52 31.8 °F /  -0.1 °C 21.0 °F /  -6.1 °C 30.28in /  1025.3hPa WSW 1.0mph /  1.6km/h 1.0mph /  1.6km/h 64% 0.00in /  0mm 0 W/m2
02:58 31.7 °F /  -0.2 °C 20.9 °F /  -6.2 °C 30.28in /  1025.3hPa Calm   1.0mph /  1.6km/h 64% 0.00in /  0mm 0 W/m2
03:04 31.5 °F /  -0.3 °C 20.7 °F /  -6.3 °C 30.28in /  1025.3hPa Calm     64% 0.00in /  0mm 0 W/m2
03:10 31.2 °F /  -0.4 °C 20.8 °F /  -6.2 °C 30.28in /  1025.3hPa Calm     65% 0.00in /  0mm 0 W/m2
03:16 30.9 °F /  -0.6 °C 20.9 °F /  -6.2 °C 30.28in /  1025.3hPa Calm     66% 0.00in /  0mm 0 W/m2
03:26 30.1 °F /  -1.1 °C 20.8 °F /  -6.2 °C 30.28in /  1025.3hPa Calm     68% 0.00in /  0mm 0 W/m2
03:32 29.6 °F /  -1.3 °C 20.3 °F /  -6.5 °C 30.28in /  1025.3hPa Calm     68% 0.00in /  0mm 0 W/m2
03:38 29.2 °F /  -1.6 °C 20.3 °F /  -6.5 °C 30.28in /  1025.3hPa Calm     69% 0.00in /  0mm 0 W/m2
03:44 29.0 °F /  -1.7 °C 20.4 °F /  -6.4 °C 30.28in /  1025.3hPa Calm     70% 0.00in /  0mm 0 W/m2
03:50 28.9 °F /  -1.7 °C 20.3 °F /  -6.5 °C 30.28in /  1025.3hPa Calm     70% 0.00in /  0mm 0 W/m2
04:00 28.7 °F /  -1.8 °C 20.5 °F /  -6.4 °C 30.28in /  1025.3hPa Calm     71% 0.00in /  0mm 0 W/m2
04:06 28.9 °F /  -1.7 °C 20.7 °F /  -6.3 °C 30.28in /  1025.3hPa Calm     71% 0.00in /  0mm 0 W/m2
04:12 29.0 °F /  -1.7 °C 20.8 °F /  -6.2 °C 30.28in /  1025.3hPa Calm     71% 0.00in /  0mm 0 W/m2
04:18 29.0 °F /  -1.7 °C 20.4 °F /  -6.4 °C 30.28in /  1025.3hPa Calm     70% 0.00in /  0mm 0 W/m2
04:24 28.9 °F /  -1.7 °C 20.3 °F /  -6.5 °C 30.28in /  1025.3hPa Calm     70% 0.00in /  0mm 0 W/m2
04:30 28.7 °F /  -1.8 °C 20.1 °F /  -6.6 °C 30.28in /  1025.3hPa Calm     70% 0.00in /  0mm 0 W/m2
04:36 28.4 °F /  -2 °C 20.2 °F /  -6.6 °C 30.28in /  1025.3hPa Calm     71% 0.00in /  0mm 0 W/m2
04:42 28.1 °F /  -2.2 °C 20.2 °F /  -6.6 °C 30.28in /  1025.3hPa Calm     72% 0.00in /  0mm 0 W/m2
04:48 28.0 °F /  -2.2 °C 20.5 °F /  -6.4 °C 30.28in /  1025.3hPa Calm     73% 0.00in /  0mm 0 W/m2
04:54 27.7 °F /  -2.4 °C 20.5 °F /  -6.4 °C 30.28in /  1025.3hPa Calm     74% 0.00in /  0mm 0 W/m2
05:00 27.4 °F /  -2.6 °C 20.5 °F /  -6.4 °C 30.28in /  1025.3hPa Calm     75% 0.00in /  0mm 0 W/m2
05:06 27.2 °F /  -2.7 °C 20.3 °F /  -6.5 °C 30.29in /  1025.6hPa Calm     75% 0.00in /  0mm 0 W/m2
05:12 26.9 °F /  -2.8 °C 20.3 °F /  -6.5 °C 30.29in /  1025.6hPa Calm     76% 0.00in /  0mm 0 W/m2
05:18 26.8 °F /  -2.9 °C 20.6 °F /  -6.3 °C 30.29in /  1025.6hPa Calm     77% 0.00in /  0mm 0 W/m2
05:24 26.7 °F /  -2.9 °C 20.8 °F /  -6.2 °C 30.30in /  1026hPa Calm     78% 0.00in /  0mm 0 W/m2
05:30 26.6 °F /  -3 °C 21.0 °F /  -6.1 °C 30.29in /  1025.6hPa Calm     79% 0.00in /  0mm 0 W/m2
05:36 26.5 °F /  -3.1 °C 21.5 °F /  -5.8 °C 30.29in /  1025.6hPa Calm     81% 0.00in /  0mm 0 W/m2
05:42 26.4 °F /  -3.1 °C 21.7 °F /  -5.7 °C 30.29in /  1025.6hPa Calm     82% 0.00in /  0mm 0 W/m2
05:48 26.2 °F /  -3.2 °C 21.7 °F /  -5.7 °C 30.29in /  1025.6hPa Calm     83% 0.00in /  0mm 0 W/m2
05:54 26.0 °F /  -3.3 °C 21.5 °F /  -5.8 °C 30.29in /  1025.6hPa Calm     83% 0.00in /  0mm 0 W/m2
06:00 25.7 °F /  -3.5 °C 21.3 °F /  -5.9 °C 30.29in /  1025.6hPa Calm     83% 0.00in /  0mm 0 W/m2
06:06 25.4 °F /  -3.7 °C 21.0 °F /  -6.1 °C 30.29in /  1025.6hPa Calm     83% 0.00in /  0mm 0 W/m2
06:12 25.1 °F /  -3.8 °C 20.7 °F /  -6.3 °C 30.29in /  1025.6hPa Calm     83% 0.00in /  0mm 0 W/m2
06:18 25.0 °F /  -3.9 °C 20.8 °F /  -6.2 °C 30.29in /  1025.6hPa Calm     84% 0.00in /  0mm 0 W/m2
06:24 25.0 °F /  -3.9 °C 20.8 °F /  -6.2 °C 30.30in /  1026hPa Calm     84% 0.00in /  0mm 0 W/m2
06:30 24.9 °F /  -3.9 °C 20.8 °F /  -6.2 °C 30.30in /  1026hPa Calm     84% 0.00in /  0mm 0 W/m2
06:36 24.9 °F /  -3.9 °C 21.0 °F /  -6.1 °C 30.30in /  1026hPa Calm     85% 0.00in /  0mm 0 W/m2
06:42 25.0 °F /  -3.9 °C 21.1 °F /  -6.1 °C 30.30in /  1026hPa Calm     85% 0.00in /  0mm 5 W/m2
06:48 25.3 °F /  -3.7 °C 21.7 °F /  -5.7 °C 30.29in /  1025.6hPa Calm     86% 0.00in /  0mm 7 W/m2
06:54 25.5 °F /  -3.6 °C 21.9 °F /  -5.6 °C 30.30in /  1026hPa Calm     86% 0.00in /  0mm 9 W/m2
07:00 25.7 °F /  -3.5 °C 22.1 °F /  -5.5 °C 30.29in /  1025.6hPa Calm     86% 0.00in /  0mm 12 W/m2
07:06 25.8 °F /  -3.4 °C 22.2 °F /  -5.4 °C 30.30in /  1026hPa Calm     86% 0.00in /  0mm 14 W/m2
07:12 25.8 °F /  -3.4 °C 22.5 °F /  -5.3 °C 30.30in /  1026hPa Calm     87% 0.00in /  0mm 18 W/m2
07:18 25.8 °F /  -3.4 °C 22.5 °F /  -5.3 °C 30.30in /  1026hPa Calm     87% 0.00in /  0mm 25 W/m2
07:24 25.8 °F /  -3.4 °C 22.5 °F /  -5.3 °C 30.30in /  1026hPa Calm     87% 0.00in /  0mm 28 W/m2
07:30 25.9 °F /  -3.4 °C 22.6 °F /  -5.2 °C 30.31in /  1026.3hPa Calm     87% 0.00in /  0mm 40 W/m2
07:36 26.1 °F /  -3.3 °C 22.8 °F /  -5.1 °C 30.31in /  1026.3hPa Calm     87% 0.00in /  0mm 74 W/m2
07:42 26.4 °F /  -3.1 °C 23.3 °F /  -4.8 °C 30.31in /  1026.3hPa Calm     88% 0.00in /  0mm 74 W/m2
07:48 26.8 °F /  -2.9 °C 23.7 °F /  -4.6 °C 30.31in /  1026.3hPa Calm     88% 0.00in /  0mm 70 W/m2
07:56 27.3 °F /  -2.6 °C 24.2 °F /  -4.3 °C 30.31in /  1026.3hPa Calm     88% 0.00in /  0mm 60 W/m2
08:02 28.0 °F /  -2.2 °C 24.9 °F /  -3.9 °C 30.31in /  1026.3hPa Calm     88% 0.00in /  0mm 91 W/m2
08:08 29.0 °F /  -1.7 °C 25.9 °F /  -3.4 °C 30.31in /  1026.3hPa Calm     88% 0.00in /  0mm 137 W/m2
08:14 29.8 °F /  -1.2 °C 26.4 °F /  -3.1 °C 30.31in /  1026.3hPa Calm     87% 0.00in /  0mm 171 W/m2
08:20 30.7 °F /  -0.7 °C 27.3 °F /  -2.6 °C 30.31in /  1026.3hPa Calm     87% 0.00in /  0mm 211 W/m2
08:26 32.0 °F /  0 °C 28.3 °F /  -2.1 °C 30.31in /  1026.3hPa Calm     86% 0.00in /  0mm 186 W/m2
08:32 33.1 °F /  0.6 °C 29.1 °F /  -1.6 °C 30.31in /  1026.3hPa Calm     85% 0.00in /  0mm 206 W/m2
08:38 33.9 °F /  1.1 °C 29.6 °F /  -1.3 °C 30.31in /  1026.3hPa Calm   1.0mph /  1.6km/h 84% 0.00in /  0mm 232 W/m2
08:44 34.8 °F /  1.6 °C 29.9 °F /  -1.2 °C 30.31in /  1026.3hPa Calm   1.0mph /  1.6km/h 82% 0.00in /  0mm 258 W/m2
08:50 36.5 °F /  2.5 °C 29.7 °F /  -1.3 °C 30.30in /  1026hPa Calm     76% 0.00in /  0mm 290 W/m2
08:56 38.2 °F /  3.4 °C 28.2 °F /  -2.1 °C 30.31in /  1026.3hPa Calm     67% 0.00in /  0mm 359 W/m2
09:02 39.9 °F /  4.4 °C 27.5 °F /  -2.5 °C 30.30in /  1026hPa Calm     61% 0.00in /  0mm 378 W/m2
09:08 40.9 °F /  4.9 °C 28.1 °F /  -2.2 °C 30.30in /  1026hPa Calm     60% 0.00in /  0mm 392 W/m2
09:14 41.9 °F /  5.5 °C 28.2 °F /  -2.1 °C 30.30in /  1026hPa Calm     58% 0.00in /  0mm 406 W/m2
09:20 42.9 °F /  6.1 °C 28.7 °F /  -1.8 °C 30.30in /  1026hPa Calm     57% 0.00in /  0mm 415 W/m2
09:26 44.2 °F /  6.8 °C 29.5 °F /  -1.4 °C 30.30in /  1026hPa Calm   2.0mph /  3.2km/h 56% 0.00in /  0mm 431 W/m2
09:32 45.2 °F /  7.3 °C 28.1 °F /  -2.2 °C 30.30in /  1026hPa Calm   1.0mph /  1.6km/h 51% 0.00in /  0mm 450 W/m2
09:38 46.0 °F /  7.8 °C 29.8 °F /  -1.2 °C 30.30in /  1026hPa Calm   1.0mph /  1.6km/h 53% 0.00in /  0mm 468 W/m2
09:44 45.3 °F /  7.4 °C 28.2 °F /  -2.1 °C 30.30in /  1026hPa SW 1.0mph /  1.6km/h 3.0mph /  4.8km/h 51% 0.00in /  0mm 482 W/m2
09:50 45.7 °F /  7.6 °C 28.1 °F /  -2.2 °C 30.30in /  1026hPa West 2.0mph /  3.2km/h 2.0mph /  3.2km/h 50% 0.00in /  0mm 497 W/m2
09:56 46.0 °F /  7.8 °C 27.9 °F /  -2.3 °C 30.29in /  1025.6hPa NW 2.0mph /  3.2km/h 4.0mph /  6.4km/h 49% 0.00in /  0mm 510 W/m2
10:02 46.5 °F /  8.1 °C 28.8 °F /  -1.8 °C 30.29in /  1025.6hPa West 2.0mph /  3.2km/h 5.0mph /  8km/h 50% 0.00in /  0mm 519 W/m2
10:08 46.5 °F /  8.1 °C 28.3 °F /  -2.1 °C 30.29in /  1025.6hPa WSW 2.0mph /  3.2km/h 5.0mph /  8km/h 49% 0.00in /  0mm 533 W/m2
10:14 47.2 °F /  8.4 °C 29.0 °F /  -1.7 °C 30.29in /  1025.6hPa WSW 2.0mph /  3.2km/h 4.0mph /  6.4km/h 49% 0.00in /  0mm 543 W/m2
10:20 48.0 °F /  8.9 °C 30.2 °F /  -1 °C 30.29in /  1025.6hPa West 1.0mph /  1.6km/h 3.0mph /  4.8km/h 50% 0.00in /  0mm 555 W/m2
10:26 47.6 °F /  8.7 °C 29.9 °F /  -1.2 °C 30.29in /  1025.6hPa WNW 2.0mph /  3.2km/h 4.0mph /  6.4km/h 50% 0.00in /  0mm 568 W/m2
10:32 47.7 °F /  8.7 °C 29.5 °F /  -1.4 °C 30.28in /  1025.3hPa WNW 3.0mph /  4.8km/h 8.0mph /  12.9km/h 49% 0.00in /  0mm 578 W/m2
10:38 48.2 °F /  9 °C 28.9 °F /  -1.7 °C 30.28in /  1025.3hPa WNW 3.0mph /  4.8km/h 8.0mph /  12.9km/h 47% 0.00in /  0mm 585 W/m2
10:46 48.5 °F /  9.2 °C 30.2 °F /  -1 °C 30.28in /  1025.3hPa SW 2.0mph /  3.2km/h 2.0mph /  3.2km/h 49% 0.00in /  0mm 601 W/m2
10:52 48.7 °F /  9.3 °C 30.9 °F /  -0.6 °C 30.28in /  1025.3hPa West 2.0mph /  3.2km/h 4.0mph /  6.4km/h 50% 0.00in /  0mm 608 W/m2
10:58 49.5 °F /  9.7 °C 32.1 °F /  0.1 °C 30.27in /  1024.9hPa West 2.0mph /  3.2km/h 3.0mph /  4.8km/h 51% 0.00in /  0mm 619 W/m2
11:04 49.4 °F /  9.7 °C 29.5 °F /  -1.4 °C 30.27in /  1024.9hPa SW 2.0mph /  3.2km/h 5.0mph /  8km/h 46% 0.00in /  0mm 626 W/m2
11:10 50.0 °F /  10 °C 32.1 °F /  0.1 °C 30.27in /  1024.9hPa WSW 2.0mph /  3.2km/h 3.0mph /  4.8km/h 50% 0.00in /  0mm 629 W/m2
11:16 49.4 °F /  9.7 °C 30.0 °F /  -1.1 °C 30.27in /  1024.9hPa SW 2.0mph /  3.2km/h 4.0mph /  6.4km/h 47% 0.00in /  0mm 636 W/m2
11:22 49.8 °F /  9.9 °C 29.8 °F /  -1.2 °C 30.27in /  1024.9hPa WSW 4.0mph /  6.4km/h 6.0mph /  9.7km/h 46% 0.00in /  0mm 642 W/m2
11:28 49.6 °F /  9.8 °C 30.7 °F /  -0.7 °C 30.26in /  1024.6hPa South 4.0mph /  6.4km/h 7.0mph /  11.3km/h 48% 0.00in /  0mm 645 W/m2
11:34 50.4 °F /  10.2 °C 30.4 °F /  -0.9 °C 30.26in /  1024.6hPa WSW 3.0mph /  4.8km/h 3.0mph /  4.8km/h 46% 0.00in /  0mm 649 W/m2
11:40 50.5 °F /  10.3 °C 32.5 °F /  0.3 °C 30.25in /  1024.3hPa SW 3.0mph /  4.8km/h 3.0mph /  4.8km/h 50% 0.00in /  0mm 656 W/m2
11:46 51.4 °F /  10.8 °C 31.8 °F /  -0.1 °C 30.25in /  1024.3hPa WSW 3.0mph /  4.8km/h 5.0mph /  8km/h 47% 0.00in /  0mm 656 W/m2
11:52 51.7 °F /  10.9 °C 30.5 °F /  -0.8 °C 30.25in /  1024.3hPa WSW 3.0mph /  4.8km/h 3.0mph /  4.8km/h 44% 0.00in /  0mm 661 W/m2
11:58 51.9 °F /  11.1 °C 30.6 °F /  -0.8 °C 30.25in /  1024.3hPa SW 3.0mph /  4.8km/h 6.0mph /  9.7km/h 44% 0.00in /  0mm 659 W/m2
12:04 52.5 °F /  11.4 °C 31.2 °F /  -0.4 °C 30.24in /  1023.9hPa SW 3.0mph /  4.8km/h 5.0mph /  8km/h 44% 0.00in /  0mm 663 W/m2
12:10 52.2 °F /  11.2 °C 29.8 °F /  -1.2 °C 30.24in /  1023.9hPa West 3.0mph /  4.8km/h 4.0mph /  6.4km/h 42% 0.00in /  0mm 661 W/m2
12:16 52.0 °F /  11.1 °C 30.7 °F /  -0.7 °C 30.24in /  1023.9hPa West 4.0mph /  6.4km/h 4.0mph /  6.4km/h 44% 0.00in /  0mm 657 W/m2
12:22 52.2 °F /  11.2 °C 32.6 °F /  0.3 °C 30.24in /  1023.9hPa WSW 4.0mph /  6.4km/h 5.0mph /  8km/h 47% 0.00in /  0mm 657 W/m2
12:28 52.5 °F /  11.4 °C 31.2 °F /  -0.4 °C 30.24in /  1023.9hPa WSW 4.0mph /  6.4km/h 5.0mph /  8km/h 44% 0.00in /  0mm 656 W/m2
12:34 52.4 °F /  11.3 °C 32.2 °F /  0.1 °C 30.23in /  1023.6hPa SW 5.0mph /  8km/h 7.0mph /  11.3km/h 46% 0.00in /  0mm 652 W/m2
12:40 53.2 °F /  11.8 °C 32.4 °F /  0.2 °C 30.23in /  1023.6hPa WSW 4.0mph /  6.4km/h 4.0mph /  6.4km/h 45% 0.00in /  0mm 657 W/m2
12:46 53.1 °F /  11.7 °C 31.2 °F /  -0.4 °C 30.22in /  1023.2hPa West 4.0mph /  6.4km/h 11.0mph /  17.7km/h 43% 0.00in /  0mm 650 W/m2
12:52 53.1 °F /  11.7 °C 31.7 °F /  -0.2 °C 30.22in /  1023.2hPa WNW 5.0mph /  8km/h 10.0mph /  16.1km/h 44% 0.00in /  0mm 657 W/m2
12:58 53.5 °F /  11.9 °C 32.1 °F /  0.1 °C 30.22in /  1023.2hPa West 5.0mph /  8km/h 10.0mph /  16.1km/h 44% 0.00in /  0mm 645 W/m2
13:04 53.0 °F /  11.7 °C 30.5 °F /  -0.8 °C 30.22in /  1023.2hPa West 5.0mph /  8km/h 5.0mph /  8km/h 42% 0.00in /  0mm 668 W/m2
13:10 52.6 °F /  11.4 °C 31.3 °F /  -0.4 °C 30.21in /  1022.9hPa West 6.0mph /  9.7km/h 6.0mph /  9.7km/h 44% 0.00in /  0mm 657 W/m2
13:16 53.5 °F /  11.9 °C 32.1 °F /  0.1 °C 30.21in /  1022.9hPa West 5.0mph /  8km/h 6.0mph /  9.7km/h 44% 0.00in /  0mm 638 W/m2
13:22 53.4 °F /  11.9 °C 31.4 °F /  -0.3 °C 30.20in /  1022.6hPa SW 5.0mph /  8km/h 5.0mph /  8km/h 43% 0.00in /  0mm 650 W/m2
13:28 53.1 °F /  11.7 °C 31.2 °F /  -0.4 °C 30.20in /  1022.6hPa WSW 6.0mph /  9.7km/h 9.0mph /  14.5km/h 43% 0.00in /  0mm 130 W/m2
13:34 52.4 °F /  11.3 °C 31.1 °F /  -0.5 °C 30.20in /  1022.6hPa West 4.0mph /  6.4km/h 5.0mph /  8km/h 44% 0.00in /  0mm 141 W/m2
13:40 54.0 °F /  12.2 °C 32.6 °F /  0.3 °C 30.19in /  1022.2hPa SW 3.0mph /  4.8km/h 4.0mph /  6.4km/h 44% 0.00in /  0mm 612 W/m2
13:46 54.8 °F /  12.7 °C 32.7 °F /  0.4 °C 30.19in /  1022.2hPa WNW 3.0mph /  4.8km/h 4.0mph /  6.4km/h 43% 0.00in /  0mm 670 W/m2
13:52 55.1 °F /  12.8 °C 33.0 °F /  0.6 °C 30.18in /  1021.9hPa WSW 3.0mph /  4.8km/h 9.0mph /  14.5km/h 43% 0.00in /  0mm 666 W/m2
13:58 54.7 °F /  12.6 °C 30.8 °F /  -0.7 °C 30.18in /  1021.9hPa West 5.0mph /  8km/h 9.0mph /  14.5km/h 40% 0.00in /  0mm 657 W/m2
14:04 54.1 °F /  12.3 °C 29.7 °F /  -1.3 °C 30.18in /  1021.9hPa SW 6.0mph /  9.7km/h 6.0mph /  9.7km/h 39% 0.00in /  0mm 643 W/m2
14:10 54.7 °F /  12.6 °C 30.2 °F /  -1 °C 30.18in /  1021.9hPa South 6.0mph /  9.7km/h 9.0mph /  14.5km/h 39% 0.00in /  0mm 610 W/m2
14:16 54.5 °F /  12.5 °C 28.7 °F /  -1.8 °C 30.17in /  1021.6hPa WNW 6.0mph /  9.7km/h 9.0mph /  14.5km/h 37% 0.00in /  0mm 617 W/m2
14:22 54.5 °F /  12.5 °C 29.4 °F /  -1.4 °C 30.17in /  1021.6hPa West 4.0mph /  6.4km/h 5.0mph /  8km/h 38% 0.00in /  0mm 151 W/m2
14:28 53.7 °F /  12.1 °C 28.7 °F /  -1.8 °C 30.17in /  1021.6hPa WSW 4.0mph /  6.4km/h 10.0mph /  16.1km/h 38% 0.00in /  0mm 123 W/m2
14:34 54.0 °F /  12.2 °C 30.2 °F /  -1 °C 30.17in /  1021.6hPa West 3.0mph /  4.8km/h 6.0mph /  9.7km/h 40% 0.00in /  0mm 526 W/m2
14:40 54.3 °F /  12.4 °C 29.2 °F /  -1.6 °C 30.17in /  1021.6hPa WNW 4.0mph /  6.4km/h 4.0mph /  6.4km/h 38% 0.00in /  0mm 543 W/m2
14:46 54.6 °F /  12.6 °C 28.2 °F /  -2.1 °C 30.17in /  1021.6hPa WNW 5.0mph /  8km/h 6.0mph /  9.7km/h 36% 0.00in /  0mm 483 W/m2
14:52 54.5 °F /  12.5 °C 28.7 °F /  -1.8 °C 30.16in /  1021.2hPa West 5.0mph /  8km/h 6.0mph /  9.7km/h 37% 0.00in /  0mm 459 W/m2
14:58 54.5 °F /  12.5 °C 29.4 °F /  -1.4 °C 30.16in /  1021.2hPa West 5.0mph /  8km/h 8.0mph /  12.9km/h 38% 0.00in /  0mm 492 W/m2
15:04 55.2 °F /  12.9 °C 29.4 °F /  -1.4 °C 30.16in /  1021.2hPa WSW 4.0mph /  6.4km/h 5.0mph /  8km/h 37% 0.00in /  0mm 438 W/m2
15:10 55.1 °F /  12.8 °C 29.9 °F /  -1.2 °C 30.16in /  1021.2hPa WSW 4.0mph /  6.4km/h 4.0mph /  6.4km/h 38% 0.00in /  0mm 464 W/m2
15:16 55.0 °F /  12.8 °C 29.8 °F /  -1.2 °C 30.16in /  1021.2hPa WNW 3.0mph /  4.8km/h 7.0mph /  11.3km/h 38% 0.00in /  0mm 473 W/m2
15:22 55.1 °F /  12.8 °C 29.3 °F /  -1.5 °C 30.16in /  1021.2hPa WSW 5.0mph /  8km/h 8.0mph /  12.9km/h 37% 0.00in /  0mm 434 W/m2
15:28 55.1 °F /  12.8 °C 29.3 °F /  -1.5 °C 30.16in /  1021.2hPa WSW 5.0mph /  8km/h 8.0mph /  12.9km/h 37% 0.00in /  0mm 411 W/m2
15:34 54.9 °F /  12.7 °C 30.4 °F /  -0.9 °C 30.15in /  1020.9hPa WSW 4.0mph /  6.4km/h 5.0mph /  8km/h 39% 0.00in /  0mm 74 W/m2
15:40 54.4 °F /  12.4 °C 29.3 °F /  -1.5 °C 30.15in /  1020.9hPa WSW 3.0mph /  4.8km/h 3.0mph /  4.8km/h 38% 0.00in /  0mm 373 W/m2
15:46 54.3 °F /  12.4 °C 29.8 °F /  -1.2 °C 30.14in /  1020.5hPa SW 4.0mph /  6.4km/h 4.0mph /  6.4km/h 39% 0.00in /  0mm 364 W/m2
15:52 54.8 °F /  12.7 °C 29.7 °F /  -1.3 °C 30.14in /  1020.5hPa WNW 4.0mph /  6.4km/h 4.0mph /  6.4km/h 38% 0.00in /  0mm 359 W/m2
15:58 55.1 °F /  12.8 °C 29.3 °F /  -1.5 °C 30.14in /  1020.5hPa WSW 4.0mph /  6.4km/h 5.0mph /  8km/h 37% 0.00in /  0mm 348 W/m2
16:04 55.2 °F /  12.9 °C 30.0 °F /  -1.1 °C 30.14in /  1020.5hPa NW 4.0mph /  6.4km/h 4.0mph /  6.4km/h 38% 0.00in /  0mm 309 W/m2
16:10 54.9 °F /  12.7 °C 27.7 °F /  -2.4 °C 30.14in /  1020.5hPa West 4.0mph /  6.4km/h 7.0mph /  11.3km/h 35% 0.00in /  0mm 288 W/m2
16:16 54.9 °F /  12.7 °C 27.7 °F /  -2.4 °C 30.13in /  1020.2hPa WSW 4.0mph /  6.4km/h 7.0mph /  11.3km/h 35% 0.00in /  0mm 272 W/m2
16:22 55.1 °F /  12.8 °C 27.9 °F /  -2.3 °C 30.13in /  1020.2hPa SW 3.0mph /  4.8km/h 4.0mph /  6.4km/h 35% 0.00in /  0mm 248 W/m2
16:28 54.8 °F /  12.7 °C 26.9 °F /  -2.8 °C 30.13in /  1020.2hPa WNW 3.0mph /  4.8km/h 6.0mph /  9.7km/h 34% 0.00in /  0mm 227 W/m2
16:34 54.6 °F /  12.6 °C 26.8 °F /  -2.9 °C 30.13in /  1020.2hPa WSW 3.0mph /  4.8km/h 6.0mph /  9.7km/h 34% 0.00in /  0mm 209 W/m2
16:40 54.2 °F /  12.3 °C 27.1 °F /  -2.7 °C 30.13in /  1020.2hPa West 3.0mph /  4.8km/h 4.0mph /  6.4km/h 35% 0.00in /  0mm 40 W/m2
16:46 53.9 °F /  12.2 °C 27.5 °F /  -2.5 °C 30.13in /  1020.2hPa WNW 3.0mph /  4.8km/h 4.0mph /  6.4km/h 36% 0.00in /  0mm 37 W/m2
16:54 53.7 °F /  12.1 °C 27.4 °F /  -2.6 °C 30.13in /  1020.2hPa SSW 2.0mph /  3.2km/h 3.0mph /  4.8km/h 36% 0.00in /  0mm 30 W/m2
17:02 53.3 °F /  11.8 °C 27.0 °F /  -2.8 °C 30.13in /  1020.2hPa SW 2.0mph /  3.2km/h 2.0mph /  3.2km/h 36% 0.00in /  0mm 28 W/m2
17:08 53.2 °F /  11.8 °C 26.2 °F /  -3.2 °C 30.13in /  1020.2hPa West 3.0mph /  4.8km/h 3.0mph /  4.8km/h 35% 0.00in /  0mm 26 W/m2
17:14 53.1 °F /  11.7 °C 26.1 °F /  -3.3 °C 30.12in /  1019.9hPa WSW 3.0mph /  4.8km/h 3.0mph /  4.8km/h 35% 0.00in /  0mm 23 W/m2
17:20 52.9 °F /  11.6 °C 26.6 °F /  -3 °C 30.12in /  1019.9hPa WSW 2.0mph /  3.2km/h 2.0mph /  3.2km/h 36% 0.00in /  0mm 21 W/m2
17:26 52.6 °F /  11.4 °C 26.4 °F /  -3.1 °C 30.12in /  1019.9hPa SW 1.0mph /  1.6km/h 6.0mph /  9.7km/h 36% 0.00in /  0mm 18 W/m2
17:32 52.5 °F /  11.4 °C 26.9 °F /  -2.8 °C 30.12in /  1019.9hPa SW 2.0mph /  3.2km/h 2.0mph /  3.2km/h 37% 0.00in /  0mm 12 W/m2
17:38 52.1 °F /  11.2 °C 26.6 °F /  -3 °C 30.12in /  1019.9hPa SW 1.0mph /  1.6km/h 4.0mph /  6.4km/h 37% 0.00in /  0mm 9 W/m2
17:44 51.8 °F /  11 °C 26.3 °F /  -3.2 °C 30.12in /  1019.9hPa SW 1.0mph /  1.6km/h 1.0mph /  1.6km/h 37% 0.00in /  0mm 7 W/m2
17:50 51.4 °F /  10.8 °C 26.6 °F /  -3 °C 30.11in /  1019.5hPa Calm     38% 0.00in /  0mm 0 W/m2
17:56 50.7 °F /  10.4 °C 26.6 °F /  -3 °C 30.11in /  1019.5hPa Calm     39% 0.00in /  0mm 0 W/m2
18:02 50.0 °F /  10 °C 26.6 °F /  -3 °C 30.11in /  1019.5hPa Calm     40% 0.00in /  0mm 0 W/m2
18:10 48.9 °F /  9.4 °C 27.4 °F /  -2.6 °C 30.11in /  1019.5hPa Calm     43% 0.00in /  0mm 0 W/m2
18:16 47.7 °F /  8.7 °C 27.4 °F /  -2.6 °C 30.11in /  1019.5hPa Calm     45% 0.00in /  0mm 0 W/m2
18:22 46.7 °F /  8.2 °C 27.0 °F /  -2.8 °C 30.11in /  1019.5hPa Calm     46% 0.00in /  0mm 0 W/m2
18:28 45.5 °F /  7.5 °C 26.9 °F /  -2.8 °C 30.11in /  1019.5hPa Calm     48% 0.00in /  0mm 0 W/m2
18:34 44.9 °F /  7.2 °C 26.4 °F /  -3.1 °C 30.11in /  1019.5hPa Calm     48% 0.00in /  0mm 0 W/m2
18:40 44.3 °F /  6.8 °C 26.8 °F /  -2.9 °C 30.11in /  1019.5hPa Calm     50% 0.00in /  0mm 0 W/m2
18:46 43.7 °F /  6.5 °C 26.7 °F /  -2.9 °C 30.11in /  1019.5hPa Calm     51% 0.00in /  0mm 0 W/m2
18:52 43.0 °F /  6.1 °C 27.0 °F /  -2.8 °C 30.11in /  1019.5hPa Calm     53% 0.00in /  0mm 0 W/m2
18:58 42.5 °F /  5.8 °C 26.6 °F /  -3 °C 30.11in /  1019.5hPa Calm     53% 0.00in /  0mm 0 W/m2
19:04 42.2 °F /  5.7 °C 27.2 °F /  -2.7 °C 30.11in /  1019.5hPa Calm     55% 0.00in /  0mm 0 W/m2
19:10 41.6 °F /  5.3 °C 27.5 °F /  -2.5 °C 30.11in /  1019.5hPa Calm     57% 0.00in /  0mm 0 W/m2
19:16 41.0 °F /  5 °C 26.5 °F /  -3.1 °C 30.10in /  1019.2hPa Calm     56% 0.00in /  0mm 0 W/m2
19:22 40.7 °F /  4.8 °C 26.6 °F /  -3 °C 30.10in /  1019.2hPa Calm     57% 0.00in /  0mm 0 W/m2
19:28 40.4 °F /  4.7 °C 26.8 °F /  -2.9 °C 30.10in /  1019.2hPa Calm     58% 0.00in /  0mm 0 W/m2
19:34 40.0 °F /  4.4 °C 26.8 °F /  -2.9 °C 30.09in /  1018.8hPa Calm     59% 0.00in /  0mm 0 W/m2
19:40 39.8 °F /  4.3 °C 26.6 °F /  -3 °C 30.09in /  1018.8hPa Calm     59% 0.00in /  0mm 0 W/m2
19:46 39.6 °F /  4.2 °C 26.8 °F /  -2.9 °C 30.09in /  1018.8hPa Calm     60% 0.00in /  0mm 0 W/m2
19:52 39.3 °F /  4.1 °C 27.0 °F /  -2.8 °C 30.09in /  1018.8hPa Calm     61% 0.00in /  0mm 0 W/m2
19:58 38.9 °F /  3.8 °C 26.6 °F /  -3 °C 30.09in /  1018.8hPa Calm     61% 0.00in /  0mm 0 W/m2
20:04 38.6 °F /  3.7 °C 26.7 °F /  -2.9 °C 30.09in /  1018.8hPa Calm     62% 0.00in /  0mm 0 W/m2
20:10 38.2 °F /  3.4 °C 26.7 °F /  -2.9 °C 30.09in /  1018.8hPa Calm     63% 0.00in /  0mm 0 W/m2
20:16 38.0 °F /  3.3 °C 26.5 °F /  -3.1 °C 30.09in /  1018.8hPa Calm     63% 0.00in /  0mm 0 W/m2
20:22 37.9 °F /  3.3 °C 26.8 °F /  -2.9 °C 30.09in /  1018.8hPa Calm     64% 0.00in /  0mm 0 W/m2
20:28 37.8 °F /  3.2 °C 26.7 °F /  -2.9 °C 30.09in /  1018.8hPa Calm     64% 0.00in /  0mm 0 W/m2
20:34 37.9 °F /  3.3 °C 26.8 °F /  -2.9 °C 30.08in /  1018.5hPa Calm     64% 0.00in /  0mm 0 W/m2
20:40 38.1 °F /  3.4 °C 27.0 °F /  -2.8 °C 30.08in /  1018.5hPa Calm     64% 0.00in /  0mm 0 W/m2
20:46 38.4 °F /  3.6 °C 27.7 °F /  -2.4 °C 30.08in /  1018.5hPa Calm     65% 0.00in /  0mm 0 W/m2
20:52 38.3 °F /  3.5 °C 27.2 °F /  -2.7 °C 30.08in /  1018.5hPa Calm     64% 0.00in /  0mm 0 W/m2
20:58 38.1 °F /  3.4 °C 27.4 °F /  -2.6 °C 30.08in /  1018.5hPa Calm     65% 0.00in /  0mm 0 W/m2
21:04 37.9 °F /  3.3 °C 27.2 °F /  -2.7 °C 30.08in /  1018.5hPa Calm     65% 0.00in /  0mm 0 W/m2
21:10 37.7 °F /  3.2 °C 27.0 °F /  -2.8 °C 30.08in /  1018.5hPa Calm     65% 0.00in /  0mm 0 W/m2
21:16 37.6 °F /  3.1 °C 27.3 °F /  -2.6 °C 30.08in /  1018.5hPa Calm     66% 0.00in /  0mm 0 W/m2
21:22 37.3 °F /  2.9 °C 27.3 °F /  -2.6 °C 30.07in /  1018.2hPa Calm     67% 0.00in /  0mm 0 W/m2
21:28 36.6 °F /  2.6 °C 27.0 °F /  -2.8 °C 30.08in /  1018.5hPa Calm     68% 0.00in /  0mm 0 W/m2
21:34 36.3 °F /  2.4 °C 27.1 °F /  -2.7 °C 30.08in /  1018.5hPa Calm     69% 0.00in /  0mm 0 W/m2
21:40 36.3 °F /  2.4 °C 27.1 °F /  -2.7 °C 30.07in /  1018.2hPa Calm     69% 0.00in /  0mm 0 W/m2
21:46 36.5 °F /  2.5 °C 27.3 °F /  -2.6 °C 30.07in /  1018.2hPa Calm     69% 0.00in /  0mm 0 W/m2
21:52 36.7 °F /  2.6 °C 27.5 °F /  -2.5 °C 30.06in /  1017.8hPa Calm     69% 0.00in /  0mm 0 W/m2
21:58 36.6 °F /  2.6 °C 27.0 °F /  -2.8 °C 30.06in /  1017.8hPa Calm     68% 0.00in /  0mm 0 W/m2
22:04 36.3 °F /  2.4 °C 27.1 °F /  -2.7 °C 30.06in /  1017.8hPa Calm     69% 0.00in /  0mm 0 W/m2
22:10 36.2 °F /  2.3 °C 27.0 °F /  -2.8 °C 30.06in /  1017.8hPa Calm     69% 0.00in /  0mm 0 W/m2
22:16 36.2 °F /  2.3 °C 27.0 °F /  -2.8 °C 30.06in /  1017.8hPa Calm     69% 0.00in /  0mm 0 W/m2
22:22 36.5 °F /  2.5 °C 26.9 °F /  -2.8 °C 30.05in /  1017.5hPa Calm   1.0mph /  1.6km/h 68% 0.00in /  0mm 0 W/m2
22:28 37.0 °F /  2.8 °C 26.7 °F /  -2.9 °C 30.05in /  1017.5hPa SW 1.0mph /  1.6km/h 3.0mph /  4.8km/h 66% 0.00in /  0mm 0 W/m2
22:34 38.4 °F /  3.6 °C 26.9 °F /  -2.8 °C 30.05in /  1017.5hPa SW 1.0mph /  1.6km/h 2.0mph /  3.2km/h 63% 0.00in /  0mm 0 W/m2
22:40 39.7 °F /  4.3 °C 26.5 °F /  -3.1 °C 30.05in /  1017.5hPa Calm     59% 0.00in /  0mm 0 W/m2
22:46 40.4 °F /  4.7 °C 25.9 °F /  -3.4 °C 30.05in /  1017.5hPa Calm   1.0mph /  1.6km/h 56% 0.00in /  0mm 0 W/m2
22:52 41.1 °F /  5.1 °C 26.1 °F /  -3.3 °C 30.05in /  1017.5hPa Calm   1.0mph /  1.6km/h 55% 0.00in /  0mm 0 W/m2
22:58 41.4 °F /  5.2 °C 25.5 °F /  -3.6 °C 30.05in /  1017.5hPa Calm   1.0mph /  1.6km/h 53% 0.00in /  0mm 0 W/m2
23:04 41.4 °F /  5.2 °C 25.5 °F /  -3.6 °C 30.05in /  1017.5hPa Calm     53% 0.00in /  0mm 0 W/m2
23:10 40.7 °F /  4.8 °C 26.2 °F /  -3.2 °C 30.04in /  1017.2hPa Calm     56% 0.00in /  0mm 0 W/m2
23:16 39.0 °F /  3.9 °C 26.3 °F /  -3.2 °C 30.04in /  1017.2hPa Calm     60% 0.00in /  0mm 0 W/m2
23:22 37.9 °F /  3.3 °C 26.0 °F /  -3.3 °C 30.04in /  1017.2hPa Calm     62% 0.00in /  0mm 0 W/m2
23:28 36.9 °F /  2.7 °C 25.9 °F /  -3.4 °C 30.04in /  1017.2hPa Calm     64% 0.00in /  0mm 0 W/m2
23:34 36.2 °F /  2.3 °C 26.3 °F /  -3.2 °C 30.04in /  1017.2hPa Calm     67% 0.00in /  0mm 0 W/m2
23:40 35.6 °F /  2 °C 26.1 °F /  -3.3 °C 30.04in /  1017.2hPa Calm     68% 0.00in /  0mm 0 W/m2
23:46 35.2 °F /  1.8 °C 26.0 °F /  -3.3 °C 30.04in /  1017.2hPa Calm     69% 0.00in /  0mm 0 W/m2
23:52 34.7 °F /  1.5 °C 25.6 °F /  -3.6 °C 30.04in /  1017.2hPa Calm     69% 0.00in /  0mm 0 W/m2
23:58 34.3 °F /  1.3 °C 25.5 °F /  -3.6 °C 30.04in /  1017.2hPa Calm     70% 0.00in /  0mm 0 W/m2
Country Meadow, Clay, NY, USA
Compliments of Weather Underground - 2 mb